Time;durP1;ratioP1;P1;durP2;ratioP2;P2;SDS_P1;SDS_P2;PMS_P1;PMS_P2;Temp;Humidity;BMP_temperature;BMP_pressure;BME280_temperature;BME280_humidity;BME280_pressure;Samples;Min_cycle;Max_cycle;Signal;HPM_P1;HPM_P2
2024/01/01 00:00:09;;;;;;;1999.90;999.90;;;;;;;6.31;75.15;96494.66;5073535;28;20091;-65
2024/01/01 00:02:36;;;;;;;;;;;;;;;6.32;75.50;96494.63;5073447;28;20048;-68
2024/01/01 00:05:03;;;;;;;1999.90;999.90;;;;;;;6.35;75.16;96498.06;5073205;28;20294;-68
2024/01/01 00:07:34;;;;;;;1999.90;999.90;;;;;;;6.37;75.33;96496.25;5073052;28;20475;-69
2024/01/01 00:10:02;;;;;;;1999.90;999.90;;;;;;;6.38;75.12;96501.41;5073004;28;20048;-69
2024/01/01 00:12:30;;;;;;;1999.90;999.90;;;;;;;6.36;75.15;96500.63;5073199;28;20048;-68
2024/01/01 00:14:57;;;;;;;1999.90;999.90;;;;;;;6.34;75.10;96498.91;5072953;28;20091;-64
2024/01/01 00:17:26;;;;;;;1999.90;999.90;;;;;;;6.37;75.43;96494.53;5073236;28;20076;-68
2024/01/01 00:19:54;;;;;;;1999.90;999.90;;;;;;;6.37;75.26;96493.66;5072657;28;20139;-67
2024/01/01 00:22:22;;;;;;;1999.90;999.90;;;;;;;6.35;75.61;96490.25;5072877;28;20464;-69
2024/01/01 00:24:49;;;;;;;1999.90;999.90;;;;;;;6.32;75.69;96485.97;5072781;28;20060;-67
2024/01/01 00:27:20;;;;;;;1999.90;999.90;;;;;;;6.33;75.93;96485.09;5073037;28;20067;-63
2024/01/01 00:29:52;;;;;;;1999.90;999.90;;;;;;;6.30;76.11;96483.41;5072789;28;20422;-69
2024/01/01 00:32:20;;;;;;;1999.90;999.90;;;;;;;6.29;75.89;96492.09;5075755;28;20491;-69
2024/01/01 00:34:52;;;;;;;1999.90;999.90;;;;;;;6.24;75.65;96487.88;5076723;28;20058;-67
2024/01/01 00:37:20;;;;;;;1999.90;999.90;;;;;;;6.18;75.69;96481.09;5076780;28;20471;-67
2024/01/01 00:39:48;;;;;;;1999.90;999.90;;;;;;;6.22;75.92;96487.91;5076766;28;20045;-64
2024/01/01 00:42:15;;;;;;;1999.90;999.90;;;;;;;6.17;76.10;96482.81;5076517;28;20049;-64
2024/01/01 00:44:45;;;;;;;1999.90;999.90;;;;;;;6.12;76.54;96481.22;5076434;28;20494;-67
2024/01/01 00:47:13;;;;;;;1999.90;999.90;;;;;;;6.12;77.04;96476.88;5076547;28;20041;-64
2024/01/01 00:49:42;;;;;;;1999.90;999.90;;;;;;;6.13;77.07;96478.56;5076591;28;20052;-66
2024/01/01 00:52:11;;;;;;;1999.90;999.90;;;;;;;6.17;76.85;96475.03;5076432;28;20056;-68
2024/01/01 00:54:38;;;;;;;1999.90;999.90;;;;;;;6.14;76.85;96482.03;5076787;28;20052;-65
2024/01/01 00:57:06;;;;;;;1999.90;999.90;;;;;;;6.16;76.64;96478.53;5076293;28;20075;-69
2024/01/01 00:59:37;;;;;;;1999.90;999.90;;;;;;;6.12;76.78;96476.88;5076466;28;20049;-64
2024/01/01 01:02:05;;;;;;;1999.90;999.90;;;;;;;6.11;76.94;96469.94;5076064;28;20498;-68
2024/01/01 01:04:32;;;;;;;1999.90;999.90;;;;;;;6.15;77.03;96466.44;5076280;28;20117;-68
2024/01/01 01:07:01;;;;;;;1999.90;999.90;;;;;;;6.17;76.93;96458.59;5076201;28;20040;-66
2024/01/01 01:09:30;;;;;;;1999.90;999.90;;;;;;;6.15;76.55;96468.16;5076057;28;20524;-64
2024/01/01 01:11:57;;;;;;;1999.90;999.90;;;;;;;6.10;76.79;96464.78;5076022;28;20048;-67
2024/01/01 01:14:25;;;;;;;1999.90;999.90;;;;;;;6.05;76.79;96454.53;5075977;28;20091;-68
2024/01/01 01:16:52;;;;;;;1999.90;999.90;;;;;;;6.06;76.94;96456.22;5075977;28;20508;-65
2024/01/01 01:19:20;;;;;;;1999.90;999.90;;;;;;;6.07;76.83;96450.13;5076169;28;20407;-69
2024/01/01 01:21:48;;;;;;;1999.90;999.90;;;;;;;6.09;76.54;96455.28;5075650;28;20063;-66
2024/01/01 01:24:15;;;;;;;1999.90;999.90;;;;;;;6.10;76.83;96457.88;5075751;28;20582;-62
2024/01/01 01:26:44;;;;;;;1999.90;999.90;;;;;;;6.12;77.05;96450.03;5075010;28;20052;-67
2024/01/01 01:29:12;;;;;;;1999.90;999.90;;;;;;;6.15;76.74;96444.78;5075841;28;20433;-65
2024/01/01 01:31:41;;;;;;;1999.90;999.90;;;;;;;6.18;76.98;96445.56;5075709;28;20505;-67
2024/01/01 01:34:09;;;;;;;1999.90;999.90;;;;;;;6.24;77.11;96446.31;5075611;28;20079;-67
2024/01/01 01:36:42;;;;;;;1999.90;999.90;;;;;;;6.24;76.70;96439.41;5075706;28;20102;-65
2024/01/01 01:39:10;;;;;;;1999.90;999.90;;;;;;;6.26;76.79;96441.97;5075633;28;20387;-67
2024/01/01 01:41:38;;;;;;;1999.90;999.90;;;;;;;6.28;76.55;96434.97;5074994;28;20049;-65
2024/01/01 01:44:07;;;;;;;1999.90;999.90;;;;;;;6.28;76.66;96432.38;5075460;28;20485;-67
2024/01/01 01:46:35;;;;;;;1999.90;999.90;;;;;;;6.28;76.76;96435.81;5075507;28;20469;-64
2024/01/01 01:49:02;;;;;;;1999.90;999.90;;;;;;;6.28;76.98;96425.44;5075461;28;20045;-68
2024/01/01 01:51:30;;;;;;;1999.90;999.90;;;;;;;6.29;77.13;96421.94;5075296;28;20582;-65
2024/01/01 01:53:58;;;;;;;1999.90;999.90;;;;;;;6.30;77.20;96418.44;5075433;28;20051;-66
2024/01/01 01:56:26;;;;;;;1999.90;999.90;;;;;;;6.34;77.05;96419.25;5075165;28;20044;-65
2024/01/01 01:58:53;;;;;;;1999.90;999.90;;;;;;;6.36;76.95;96424.41;5075156;28;20044;-66
2024/01/01 02:01:22;;;;;;;1999.90;999.90;;;;;;;6.39;76.97;96432.13;5075126;28;20048;-65
2024/01/01 02:03:49;;;;;;;1999.90;999.90;;;;;;;6.39;77.30;96425.19;5075142;28;20048;-66
2024/01/01 02:06:16;;;;;;;1999.90;999.90;;;;;;;6.43;76.86;96429.44;5075069;28;20060;-67
2024/01/01 02:08:43;;;;;;;1999.90;999.90;;;;;;;6.45;77.20;96414.63;5075038;28;20040;-64
2024/01/01 02:11:11;;;;;;;1999.90;999.90;;;;;;;6.47;76.92;96416.38;5074980;28;20048;-68
2024/01/01 02:13:38;;;;;;;1999.90;999.90;;;;;;;6.50;77.07;96417.13;5074948;28;20139;-66
2024/01/01 02:16:06;;;;;;;1999.90;999.90;;;;;;;6.51;76.85;96421.47;5074661;28;20053;-64
2024/01/01 02:18:36;;;;;;;1999.90;999.90;;;;;;;6.52;76.72;96422.28;5075122;28;20138;-65
2024/01/01 02:21:03;;;;;;;1999.90;999.90;;;;;;;6.54;76.58;96415.31;5074557;28;20135;-69
2024/01/01 02:23:31;;;;;;;1999.90;999.90;;;;;;;6.54;76.85;96416.16;5074673;28;20084;-67
2024/01/01 02:25:59;;;;;;;1999.90;999.90;;;;;;;6.55;76.57;96414.44;5074633;28;20059;-67
2024/01/01 02:28:26;;;;;;;1999.90;999.90;;;;;;;6.53;76.40;96408.44;5074589;28;20106;-67
2024/01/01 02:30:53;;;;;;;1999.90;999.90;;;;;;;6.57;76.78;96407.47;5074797;28;20040;-64
2024/01/01 02:33:20;;;;;;;1999.90;999.90;;;;;;;6.61;76.69;96416.03;5074508;28;20131;-67
2024/01/01 02:35:47;;;;;;;1999.90;999.90;;;;;;;6.55;76.72;96401.44;5074428;28;20048;-65
2024/01/01 02:38:14;;;;;;;1999.90;999.90;;;;;;;6.61;76.75;96409.09;5074592;28;20063;-70
2024/01/01 02:40:44;;;;;;;1999.90;999.90;;;;;;;6.64;76.86;96405.56;5074572;28;20046;-65
2024/01/01 02:43:11;;;;;;;1999.90;999.90;;;;;;;6.65;76.90;96408.13;5074269;28;20055;-64
2024/01/01 02:45:38;;;;;;;1999.90;999.90;;;;;;;6.66;76.68;96406.38;5074581;28;20055;-66
2024/01/01 02:48:06;;;;;;;1999.90;999.90;;;;;;;6.62;76.72;96409.94;5074682;28;20049;-69
2024/01/01 02:50:33;;;;;;;1999.90;999.90;;;;;;;6.60;76.87;96406.53;5074113;28;20095;-68
2024/01/01 02:53:00;;;;;;;1999.90;999.90;;;;;;;6.59;77.25;96402.22;5073920;28;20053;-66
2024/01/01 02:55:28;;;;;;;1999.90;999.90;;;;;;;6.58;77.58;96406.56;5073643;28;20079;-66
2024/01/01 02:57:56;;;;;;;1999.90;999.90;;;;;;;6.60;77.33;96406.53;5074142;28;20087;-68
2024/01/01 03:00:24;;;;;;;1999.90;999.90;;;;;;;6.61;77.51;96405.63;5073944;28;20102;-66
2024/01/01 03:02:50;;;;;;;1999.90;999.90;;;;;;;6.64;77.33;96402.94;5073933;28;20041;-66
2024/01/01 03:05:22;;;;;;;1999.90;999.90;;;;;;;6.68;77.38;96407.19;5073848;28;20395;-66
2024/01/01 03:07:49;;;;;;;1999.90;999.90;;;;;;;6.68;77.26;96400.25;5073801;28;20131;-66
2024/01/01 03:10:16;;;;;;;1999.90;999.90;;;;;;;6.72;77.53;96395.84;5073684;28;20048;-65
2024/01/01 03:12:43;;;;;;;1999.90;999.90;;;;;;;6.70;77.69;96403.66;5073708;28;20080;-69
2024/01/01 03:15:12;;;;;;;1999.90;999.90;;;;;;;6.73;77.55;96396.66;5073792;28;20486;-66
2024/01/01 03:17:39;;;;;;;1999.90;999.90;;;;;;;6.72;77.57;96387.16;5073610;28;20516;-67
2024/01/01 03:20:09;;;;;;;1999.90;999.90;;;;;;;6.75;77.34;96387.09;5073372;28;20052;-65
2024/01/01 03:22:36;;;;;;;;;;;;;;;6.77;77.49;96378.34;5074385;28;20422;-65
2024/01/01 03:25:07;;;;;;;1999.90;999.90;;;;;;;6.74;77.27;96383.63;5073350;28;20286;-66
2024/01/01 03:27:36;;;;;;;1999.90;999.90;;;;;;;6.76;77.23;96376.66;5073841;28;20060;-70
2024/01/01 03:30:06;;;;;;;1999.90;999.90;;;;;;;6.78;77.24;96371.41;5073449;28;20131;-67
2024/01/01 03:32:34;;;;;;;1999.90;999.90;;;;;;;6.79;77.30;96363.59;5073438;28;20540;-65
2024/01/01 03:35:01;;;;;;;1999.90;999.90;;;;;;;6.80;77.42;96370.47;5073621;28;20082;-65
2024/01/01 03:37:29;;;;;;;1999.90;999.90;;;;;;;6.83;77.54;96372.13;5073393;28;20048;-65
2024/01/01 03:39:56;;;;;;;1999.90;999.90;;;;;;;6.85;77.19;96362.56;5073571;28;20135;-68
2024/01/01 03:42:23;;;;;;;1999.90;999.90;;;;;;;6.85;77.29;96369.50;5073378;28;20135;-66
2024/01/01 03:44:50;;;;;;;1999.90;999.90;;;;;;;6.81;77.16;96368.75;5073483;28;20091;-68
2024/01/01 03:47:17;;;;;;;1999.90;999.90;;;;;;;6.83;77.59;96365.19;5073309;28;20098;-66
2024/01/01 03:49:45;;;;;;;1999.90;999.90;;;;;;;6.80;77.59;96370.47;5073084;28;20054;-69
2024/01/01 03:52:13;;;;;;;1999.90;999.90;;;;;;;6.74;77.60;96357.63;5073195;28;20080;-64
2024/01/01 03:54:41;;;;;;;1999.90;999.90;;;;;;;6.82;77.17;96371.31;5073212;28;20071;-66
2024/01/01 03:57:07;;;;;;;1999.90;999.90;;;;;;;6.85;77.46;96361.69;5073155;28;20045;-67
2024/01/01 03:59:35;;;;;;;1999.90;999.90;;;;;;;6.87;77.54;96372.94;5073083;28;20048;-66
2024/01/01 04:02:02;;;;;;;1999.90;999.90;;;;;;;6.89;77.51;96364.19;5073133;28;20052;-65
2024/01/01 04:04:29;;;;;;;1999.90;999.90;;;;;;;6.90;77.55;96365.06;5072952;28;20084;-64
2024/01/01 04:06:57;;;;;;;1999.90;999.90;;;;;;;6.87;77.53;96355.59;5072821;28;20053;-65
2024/01/01 04:09:24;;;;;;;1999.90;999.90;;;;;;;6.86;77.24;96355.63;5072942;28;20473;-66
2024/01/01 04:11:51;;;;;;;1999.90;999.90;;;;;;;6.83;77.10;96347.00;5073071;28;20070;-68
2024/01/01 04:14:18;;;;;;;1999.90;999.90;;;;;;;6.82;77.13;96344.44;5073049;28;20080;-68
2024/01/01 04:16:45;;;;;;;1999.90;999.90;;;;;;;6.83;77.23;96351.34;5073161;28;20131;-66
2024/01/01 04:19:12;;;;;;;1999.90;999.90;;;;;;;6.82;77.22;96349.63;5073406;28;20048;-67
2024/01/01 04:21:40;;;;;;;1999.90;999.90;;;;;;;6.83;77.31;96356.53;5072828;28;20048;-69
2024/01/01 04:24:08;;;;;;;1999.90;999.90;;;;;;;6.84;77.40;96358.28;5072668;28;20490;-68
2024/01/01 04:26:35;;;;;;;1999.90;999.90;;;;;;;6.83;77.38;96352.19;5072933;28;20047;-64
2024/01/01 04:29:02;;;;;;;1999.90;999.90;;;;;;;6.81;77.52;96355.75;5073143;28;20135;-68
2024/01/01 04:31:29;;;;;;;1999.90;999.90;;;;;;;6.80;77.50;96357.47;5072880;28;20082;-69
2024/01/01 04:33:56;;;;;;;1999.90;999.90;;;;;;;6.82;77.33;96353.09;5072996;28;20514;-69
2024/01/01 04:36:23;;;;;;;1999.90;999.90;;;;;;;6.76;77.63;96355.84;5072986;28;20052;-70
2024/01/01 04:38:50;;;;;;;1999.90;999.90;;;;;;;6.69;77.90;96354.31;5072726;28;20584;-65
2024/01/01 04:41:19;;;;;;;1999.90;999.90;;;;;;;6.71;77.76;96349.91;5072639;28;20139;-68
2024/01/01 04:43:47;;;;;;;1999.90;999.90;;;;;;;6.72;77.49;96359.44;5072595;28;20041;-69
2024/01/01 04:46:14;;;;;;;1999.90;999.90;;;;;;;6.72;77.54;96356.84;5072540;28;20048;-68
2024/01/01 04:48:41;;;;;;;1999.90;999.90;;;;;;;6.66;77.73;96349.19;5072605;28;20498;-66
2024/01/01 04:51:08;;;;;;;1999.90;999.90;;;;;;;6.63;77.59;96342.34;5072721;28;20120;-66
2024/01/01 04:53:35;;;;;;;1999.90;999.90;;;;;;;6.62;77.35;96345.81;5072666;28;20049;-68
2024/01/01 04:56:02;;;;;;;1999.90;999.90;;;;;;;6.62;77.26;96348.41;5072529;28;20098;-68
2024/01/01 04:58:31;;;;;;;1999.90;999.90;;;;;;;6.60;76.82;96344.13;5072818;28;20044;-66
2024/01/01 05:00:58;;;;;;;1999.90;999.90;;;;;;;6.54;76.68;96346.00;5072563;28;21237;-63
2024/01/01 05:03:25;;;;;;;1999.90;999.90;;;;;;;6.48;76.50;96347.91;5072547;28;20106;-66
2024/01/01 05:05:52;;;;;;;1999.90;999.90;;;;;;;6.37;75.83;96359.41;5072535;28;20083;-65
2024/01/01 05:08:19;;;;;;;1999.90;999.90;;;;;;;6.09;75.69;96357.47;5072370;28;20143;-68
2024/01/01 05:10:46;;;;;;;1999.90;999.90;;;;;;;5.99;76.05;96358.53;5072393;28;20050;-66
2024/01/01 05:13:14;;;;;;;1999.90;999.90;;;;;;;5.87;76.24;96359.66;5072679;28;20127;-66
2024/01/01 05:15:43;;;;;;;1999.90;999.90;;;;;;;5.79;75.89;96359.81;5072562;28;20461;-63
2024/01/01 05:18:11;;;;;;;1999.90;999.90;;;;;;;5.67;75.99;96359.22;5074762;28;20127;-67
2024/01/01 05:20:39;;;;;;;1999.90;999.90;;;;;;;5.56;75.68;96366.34;5075856;28;20049;-68
2024/01/01 05:23:06;;;;;;;1999.90;999.90;;;;;;;5.41;75.41;96360.59;5075871;28;20083;-64
2024/01/01 05:25:33;;;;;;;1999.90;999.90;;;;;;;5.10;75.19;96353.44;5075689;28;20059;-66
2024/01/01 05:28:00;;;;;;;1999.90;999.90;;;;;;;4.92;75.54;96358.09;5075766;28;20414;-66
2024/01/01 05:30:30;;;;;;;1999.90;999.90;;;;;;;4.80;75.80;96348.78;5075664;28;20079;-66
2024/01/01 05:32:59;;;;;;;1999.90;999.90;;;;;;;4.75;75.77;96353.19;5075637;28;20056;-66
2024/01/01 05:35:26;;;;;;;1999.90;999.90;;;;;;;4.67;75.65;96355.06;5075694;28;20094;-66
2024/01/01 05:37:54;;;;;;;1999.90;999.90;;;;;;;4.52;75.48;96351.00;5075657;28;20052;-67
2024/01/01 05:40:21;;;;;;;1999.90;999.90;;;;;;;4.38;75.47;96349.50;5075841;28;20051;-67
2024/01/01 05:42:48;;;;;;;1999.90;999.90;;;;;;;4.26;75.44;96350.56;5075517;28;20132;-67
2024/01/01 05:45:16;;;;;;;1999.90;999.90;;;;;;;4.06;75.43;96344.84;5075562;28;20399;-65
2024/01/01 05:47:43;;;;;;;1999.90;999.90;;;;;;;3.96;76.47;96352.72;5075493;28;20437;-65
2024/01/01 05:50:11;;;;;;;1999.90;999.90;;;;;;;3.91;76.55;96351.94;5075410;28;20040;-66
2024/01/01 05:52:39;;;;;;;1999.90;999.90;;;;;;;3.74;76.92;96350.47;5075358;28;20055;-66
2024/01/01 05:55:06;;;;;;;1999.90;999.90;;;;;;;3.64;77.48;96346.25;5075344;28;20048;-67
2024/01/01 05:57:33;;;;;;;1999.90;999.90;;;;;;;3.63;77.71;96349.72;5075545;28;20048;-67
2024/01/01 06:00:00;;;;;;;1999.90;999.90;;;;;;;3.58;77.35;96343.78;5075297;28;20063;-66
2024/01/01 06:02:28;;;;;;;1999.90;999.90;;;;;;;3.49;78.04;96348.19;5075194;28;20044;-64
2024/01/01 06:04:55;;;;;;;1999.90;999.90;;;;;;;3.49;78.63;96347.34;5075100;28;20059;-65
2024/01/01 06:07:23;;;;;;;1999.90;999.90;;;;;;;3.49;78.37;96344.75;5074927;28;20139;-63
2024/01/01 06:09:50;;;;;;;1999.90;999.90;;;;;;;3.50;77.95;96341.28;5075118;28;20045;-65
2024/01/01 06:12:18;;;;;;;1999.90;999.90;;;;;;;3.51;77.76;96348.16;5074865;28;20044;-66
2024/01/01 06:14:46;;;;;;;1999.90;999.90;;;;;;;3.47;77.20;96342.19;5074969;28;20048;-65
2024/01/01 06:17:13;;;;;;;1999.90;999.90;;;;;;;3.35;77.78;96334.56;5074814;28;20500;-66
2024/01/01 06:19:40;;;;;;;1999.90;999.90;;;;;;;3.36;77.59;96339.72;5074535;28;20127;-64
2024/01/01 06:22:10;;;;;;;1999.90;999.90;;;;;;;3.40;77.89;96335.34;5074728;28;20076;-66
2024/01/01 06:24:39;;;;;;;1999.90;999.90;;;;;;;3.36;77.92;96331.09;5074586;28;20087;-65
2024/01/01 06:27:06;;;;;;;1999.90;999.90;;;;;;;3.47;79.68;96339.59;5074726;28;20467;-65
2024/01/01 06:29:34;;;;;;;1999.90;999.90;;;;;;;4.00;79.24;96345.78;5074503;28;20048;-66
2024/01/01 06:32:02;;;;;;;1999.90;999.90;;;;;;;4.91;75.63;96347.75;5074601;28;20048;-63
2024/01/01 06:34:30;;;;;;;1999.90;999.90;;;;;;;5.77;72.08;96361.59;5074479;28;20072;-63
2024/01/01 06:36:58;;;;;;;1999.90;999.90;;;;;;;6.17;67.82;96367.69;5074391;28;20516;-68
2024/01/01 06:39:25;;;;;;;1999.90;999.90;;;;;;;6.93;64.53;96368.41;5074510;28;20099;-67
2024/01/01 06:41:53;;;;;;;1999.90;999.90;;;;;;;7.87;61.92;96378.88;5074424;28;20051;-66
2024/01/01 06:44:25;;;;;;;1999.90;999.90;;;;;;;8.66;59.13;96375.59;5074225;28;20498;-65
2024/01/01 06:46:52;;;;;;;1999.90;999.90;;;;;;;9.29;55.75;96387.38;5074279;28;20078;-68
2024/01/01 06:49:19;;;;;;;1999.90;999.90;;;;;;;10.06;55.07;96384.63;5074222;28;20070;-65
2024/01/01 06:51:50;;;;;;;1999.90;999.90;;;;;;;10.58;53.43;96379.13;5074123;28;20044;-68
2024/01/01 06:54:19;;;;;;;1999.90;999.90;;;;;;;10.74;53.25;96373.25;5074136;28;20048;-67
2024/01/01 06:56:47;;;;;;;1999.90;999.90;;;;;;;11.12;50.25;96383.91;5074202;28;20059;-65
2024/01/01 06:59:18;;;;;;;1999.90;999.90;;;;;;;12.07;48.41;96384.13;5074006;28;20517;-67
2024/01/01 07:01:44;;;;;;;;;;;;;;;13.05;45.59;96391.72;5074370;28;20045;-66
2024/01/01 07:04:14;;;;;;;1999.90;999.90;;;;;;;13.83;44.65;96384.25;5073920;28;20600;-67
2024/01/01 07:06:41;;;;;;;1999.90;999.90;;;;;;;14.70;42.58;96387.41;5073856;28;20051;-69
2024/01/01 07:09:09;;;;;;;1999.90;999.90;;;;;;;15.14;42.57;96382.31;5073783;28;20127;-67
2024/01/01 07:11:36;;;;;;;1999.90;999.90;;;;;;;15.71;41.59;96385.94;5073964;28;20044;-67
2024/01/01 07:14:03;;;;;;;1999.90;999.90;;;;;;;16.50;40.11;96390.75;5073827;28;20044;-66
2024/01/01 07:16:32;;;;;;;1999.90;999.90;;;;;;;17.37;37.44;96391.34;5073746;28;20044;-66
2024/01/01 07:19:00;;;;;;;1999.90;999.90;;;;;;;17.87;36.60;96386.13;5073644;28;20082;-66
2024/01/01 07:21:28;;;;;;;1999.90;999.90;;;;;;;18.58;35.81;96390.03;5073301;28;20056;-67
2024/01/01 07:23:56;;;;;;;1999.90;999.90;;;;;;;19.24;34.49;96383.44;5073879;28;20080;-65
2024/01/01 07:26:23;;;;;;;1999.90;999.90;;;;;;;19.89;33.40;96376.75;5073543;28;20444;-67
2024/01/01 07:28:51;;;;;;;1999.90;999.90;;;;;;;20.44;32.70;96381.34;5073632;28;20044;-69
2024/01/01 07:31:19;;;;;;;1999.90;999.90;;;;;;;20.32;33.23;96384.00;5073407;28;20045;-65
2024/01/01 07:33:49;;;;;;;1999.90;999.90;;;;;;;20.44;33.34;96386.66;5073307;28;20051;-69
2024/01/01 07:36:16;;;;;;;1999.90;999.90;;;;;;;20.86;33.03;96372.59;5073172;28;20387;-67
2024/01/01 07:38:44;;;;;;;1999.90;999.90;;;;;;;21.48;32.01;96374.63;5073321;28;20098;-67
2024/01/01 07:41:11;;;;;;;1999.90;999.90;;;;;;;22.17;30.87;96364.31;5073132;28;20079;-67
2024/01/01 07:43:39;;;;;;;1999.90;999.90;;;;;;;22.84;29.82;96365.56;5073458;28;20044;-65
2024/01/01 07:46:10;;;;;;;1999.90;999.90;;;;;;;23.20;29.31;96368.50;5073617;28;20053;-68
2024/01/01 07:48:37;;;;;;;1999.90;999.90;;;;;;;23.31;29.37;96375.53;5073225;28;20048;-65
2024/01/01 07:51:06;;;;;;;1999.90;999.90;;;;;;;23.38;28.74;96373.16;5073191;28;20147;-66
2024/01/01 07:53:34;;;;;;;1999.90;999.90;;;;;;;23.38;29.02;96377.66;5073098;28;20127;-65
2024/01/01 07:56:06;;;;;;;1999.90;999.90;;;;;;;23.40;29.27;96371.19;5073042;28;20068;-65
2024/01/01 07:58:41;;;;;;;1999.90;999.90;;;;;;;24.04;28.32;96370.56;5073051;28;20048;-68
2024/01/01 08:01:10;;;;;;;1999.90;999.90;;;;;;;24.76;27.10;96373.56;5073123;28;20059;-65
2024/01/01 08:03:42;;;;;;;1999.90;999.90;;;;;;;24.96;26.68;96368.94;5073079;28;20486;-66
2024/01/01 08:06:12;;;;;;;1999.90;999.90;;;;;;;24.94;26.56;96369.09;5072880;28;20052;-63
2024/01/01 08:08:40;;;;;;;1999.90;999.90;;;;;;;24.53;27.35;96353.44;5072971;28;20048;-66
2024/01/01 08:11:08;;;;;;;1999.90;999.90;;;;;;;24.65;26.88;96356.75;5072985;28;20078;-65
2024/01/01 08:13:36;;;;;;;1999.90;999.90;;;;;;;25.09;26.47;96357.84;5072859;28;20044;-63
2024/01/01 08:16:06;;;;;;;1999.90;999.90;;;;;;;24.86;26.47;96358.28;5072851;28;20056;-66
2024/01/01 08:18:33;;;;;;;1999.90;999.90;;;;;;;24.44;27.11;96335.66;5072872;28;20045;-68
2024/01/01 08:21:00;;;;;;;1999.90;999.90;;;;;;;25.24;26.36;96337.56;5072684;28;20052;-68
2024/01/01 08:23:31;;;;;;;1999.90;999.90;;;;;;;25.86;25.38;96340.31;5072842;28;20048;-67
2024/01/01 08:25:58;;;;;;;1999.90;999.90;;;;;;;26.21;24.85;96337.59;5072730;28;20055;-67
2024/01/01 08:28:26;;;;;;;1999.90;999.90;;;;;;;25.37;25.95;96333.63;5073001;28;20111;-68
2024/01/01 08:30:54;;;;;;;1999.90;999.90;;;;;;;25.73;25.53;96341.59;5072984;28;20132;-64
2024/01/01 08:33:21;;;;;;;1999.90;999.90;;;;;;;26.06;24.97;96338.22;5072748;28;20052;-69
2024/01/01 08:35:48;;;;;;;1999.90;999.90;;;;;;;26.17;24.70;96334.41;5072574;28;20509;-66
2024/01/01 08:38:16;;;;;;;1999.90;999.90;;;;;;;25.91;25.05;96331.81;5072764;28;20048;-66
2024/01/01 08:40:47;;;;;;;1999.90;999.90;;;;;;;24.90;26.21;96321.41;5072694;28;20045;-64
2024/01/01 08:43:14;;;;;;;1999.90;999.90;;;;;;;24.48;26.76;96316.47;5072711;28;20048;-63
2024/01/01 08:45:42;;;;;;;1999.90;999.90;;;;;;;24.02;27.34;96316.44;5072456;28;20053;-66
2024/01/01 08:48:10;;;;;;;1999.90;999.90;;;;;;;23.48;28.28;96307.25;5072516;28;20044;-65
2024/01/01 08:50:39;;;;;;;1999.90;999.90;;;;;;;23.03;28.85;96313.22;5072595;28;20041;-64
2024/01/01 08:53:07;;;;;;;1999.90;999.90;;;;;;;22.29;29.62;96305.59;5074846;28;20049;-66
2024/01/01 08:55:34;;;;;;;1999.90;999.90;;;;;;;21.18;31.57;96300.00;5076548;28;20053;-66
2024/01/01 08:58:06;;;;;;;1999.90;999.90;;;;;;;19.98;33.78;96306.22;5076453;28;20044;-69
2024/01/01 09:00:35;;;;;;;1999.90;999.90;;;;;;;19.02;35.19;96297.56;5076299;28;20076;-66
2024/01/01 09:03:03;;;;;;;1999.90;999.90;;;;;;;18.04;36.96;96291.47;5076229;28;20044;-65
2024/01/01 09:05:30;;;;;;;1999.90;999.90;;;;;;;17.63;37.90;96294.34;5076097;28;20048;-69
2024/01/01 09:07:59;;;;;;;1999.90;999.90;;;;;;;17.18;38.73;96278.94;5075972;28;20131;-66
2024/01/01 09:10:30;;;;;;;1999.90;999.90;;;;;;;16.82;39.21;96270.75;5076046;28;20187;-65
2024/01/01 09:13:01;;;;;;;1999.90;999.90;;;;;;;16.15;41.26;96268.06;5075971;28;20095;-66
2024/01/01 09:15:34;;;;;;;1999.90;999.90;;;;;;;15.45;42.66;96259.25;5075991;28;20479;-67
2024/01/01 09:18:02;;;;;;;1999.90;999.90;;;;;;;15.04;43.62;96258.19;5076025;28;20479;-65
2024/01/01 09:20:30;;;;;;;1999.90;999.90;;;;;;;14.64;45.17;96253.50;5075675;28;20044;-64
2024/01/01 09:22:59;;;;;;;1999.90;999.90;;;;;;;14.47;45.79;96252.72;5075885;28;20048;-64
2024/01/01 09:25:27;;;;;;;1999.90;999.90;;;;;;;14.21;46.47;96252.44;5075693;28;20045;-66
2024/01/01 09:27:55;;;;;;;1999.90;999.90;;;;;;;14.10;47.05;96253.06;5075882;28;20059;-64
2024/01/01 09:30:23;;;;;;;1999.90;999.90;;;;;;;14.06;47.23;96248.06;5075716;28;20059;-65
2024/01/01 09:32:54;;;;;;;1999.90;999.90;;;;;;;13.86;47.98;96250.88;5075598;28;20045;-63
2024/01/01 09:35:23;;;;;;;1999.90;999.90;;;;;;;13.84;47.39;96244.00;5075550;28;20132;-68
2024/01/01 09:38:01;;;;;;;1999.90;999.90;;;;;;;13.85;47.69;96237.81;5075585;28;20052;-67
2024/01/01 09:40:29;;;;;;;1999.90;999.90;;;;;;;13.77;48.29;96233.84;5075567;28;20052;-66
2024/01/01 09:43:00;;;;;;;1999.90;999.90;;;;;;;13.73;48.09;96237.56;5075458;28;20501;-67
2024/01/01 09:45:31;;;;;;;1999.90;999.90;;;;;;;13.73;47.96;96232.28;5075379;28;20052;-69
2024/01/01 09:48:01;;;;;;;1999.90;999.90;;;;;;;13.64;48.72;96219.69;5075545;28;20055;-66
2024/01/01 09:50:29;;;;;;;1999.90;999.90;;;;;;;13.58;48.60;96222.66;5075391;28;20072;-63
2024/01/01 09:53:00;;;;;;;1999.90;999.90;;;;;;;13.52;48.96;96224.66;5075474;28;20102;-64
2024/01/01 09:55:27;;;;;;;1999.90;999.90;;;;;;;13.56;49.45;96224.50;5075248;28;20084;-63
2024/01/01 09:57:56;;;;;;;1999.90;999.90;;;;;;;13.64;49.46;96222.31;5075256;28;20052;-64
2024/01/01 10:00:25;;;;;;;1999.90;999.90;;;;;;;13.75;48.78;96216.44;5075167;28;20494;-67
2024/01/01 10:03:06;;;;;;;1999.90;999.90;;;;;;;13.83;48.49;96211.63;5074670;28;20135;-65
2024/01/01 10:05:35;;;;;;;;;;;;;;;13.84;48.39;96204.56;5075690;28;20520;-65
2024/01/01 10:08:09;;;;;;;1999.90;999.90;;;;;;;13.86;47.75;96197.44;5075039;28;19926;-68
2024/01/01 10:10:38;;;;;;;1999.90;999.90;;;;;;;13.90;47.89;96193.69;5075122;28;20123;-64
2024/01/01 10:13:10;;;;;;;1999.90;999.90;;;;;;;13.92;48.12;96191.84;5074935;28;20130;-65
2024/01/01 10:15:39;;;;;;;1999.90;999.90;;;;;;;13.78;48.26;96192.63;5074861;28;20055;-68
2024/01/01 10:18:11;;;;;;;1999.90;999.90;;;;;;;13.77;47.95;96189.16;5075203;28;20059;-65
2024/01/01 10:20:42;;;;;;;1999.90;999.90;;;;;;;13.88;48.46;96182.44;5074724;28;20048;-64
2024/01/01 10:23:30;;;;;;;1999.90;999.90;;;;;;;13.95;48.64;96178.53;5075139;28;20110;-64
2024/01/01 10:26:05;;;;;;;1999.90;999.90;;;;;;;13.96;47.30;96180.22;5074690;28;20544;-63
2024/01/01 10:28:34;;;;;;;1999.90;999.90;;;;;;;13.83;48.65;96172.19;5074609;28;20170;-65
2024/01/01 10:31:04;;;;;;;1999.90;999.90;;;;;;;13.86;48.34;96176.41;5074484;28;20486;-65
2024/01/01 10:33:32;;;;;;;1999.90;999.90;;;;;;;13.88;47.93;96167.50;5074654;28;20101;-69
2024/01/01 10:36:05;;;;;;;1999.90;999.90;;;;;;;13.86;48.79;96166.75;5074407;28;20041;-63
2024/01/01 10:38:34;;;;;;;1999.90;999.90;;;;;;;13.89;48.33;96156.06;5074620;28;20048;-64
2024/01/01 10:41:03;;;;;;;1999.90;999.90;;;;;;;14.01;48.22;96156.28;5074354;28;20121;-66
2024/01/01 10:43:30;;;;;;;1999.90;999.90;;;;;;;13.93;48.25;96161.97;5074326;28;20055;-67
2024/01/01 10:46:03;;;;;;;1999.90;999.90;;;;;;;14.00;48.23;96155.41;5074409;28;20053;-66
2024/01/01 10:48:32;;;;;;;1999.90;999.90;;;;;;;14.10;47.75;96147.00;5074100;28;20044;-66
2024/01/01 10:51:18;;;;;;;1999.90;999.90;;;;;;;14.07;48.43;96144.56;5074424;28;20048;-68
2024/01/01 10:54:06;;;;;;;1999.90;999.90;;;;;;;14.20;47.73;96150.78;5074279;28;20044;-68
2024/01/01 10:56:44;;;;;;;1999.90;999.90;;;;;;;14.22;47.09;96138.41;5074085;28;20153;-66
2024/01/01 10:59:19;;;;;;;1999.90;999.90;;;;;;;14.17;48.41;96137.00;5074025;28;20110;-64
2024/01/01 11:01:50;;;;;;;1999.90;999.90;;;;;;;14.07;47.46;96128.78;5073974;28;20577;-67
2024/01/01 11:04:20;;;;;;;;;;;;;;;13.99;47.68;96126.59;5074468;28;20055;-66